sensor_id;sensor_type;location;lat;lon;timestamp;temperature;humidity
62809;DHT22;48848;39.002;-94.584;2022-09-02T00:00:18;24.40;39.50
62809;DHT22;48848;39.002;-94.584;2022-09-02T00:02:47;24.80;38.20
62809;DHT22;48848;39.002;-94.584;2022-09-02T00:05:13;25.00;37.50
62809;DHT22;48848;39.002;-94.584;2022-09-02T00:07:39;25.10;37.50
62809;DHT22;48848;39.002;-94.584;2022-09-02T00:10:05;25.30;37.50
62809;DHT22;48848;39.002;-94.584;2022-09-02T00:12:31;25.30;37.30
62809;DHT22;48848;39.002;-94.584;2022-09-02T00:14:57;25.40;37.20
62809;DHT22;48848;39.002;-94.584;2022-09-02T00:17:23;25.40;36.80
62809;DHT22;48848;39.002;-94.584;2022-09-02T00:19:48;25.50;37.00
62809;DHT22;48848;39.002;-94.584;2022-09-02T00:22:15;25.40;36.60
62809;DHT22;48848;39.002;-94.584;2022-09-02T00:24:40;25.40;36.60
62809;DHT22;48848;39.002;-94.584;2022-09-02T00:27:06;25.40;36.60
62809;DHT22;48848;39.002;-94.584;2022-09-02T00:29:32;25.50;36.90
62809;DHT22;48848;39.002;-94.584;2022-09-02T00:31:58;25.40;36.40
62809;DHT22;48848;39.002;-94.584;2022-09-02T00:34:24;25.40;36.70
62809;DHT22;48848;39.002;-94.584;2022-09-02T00:36:50;25.40;36.20
62809;DHT22;48848;39.002;-94.584;2022-09-02T00:39:16;25.40;36.50
62809;DHT22;48848;39.002;-94.584;2022-09-02T00:41:43;25.40;36.40
62809;DHT22;48848;39.002;-94.584;2022-09-02T00:44:10;25.30;36.30
62809;DHT22;48848;39.002;-94.584;2022-09-02T00:46:37;25.40;36.30
62809;DHT22;48848;39.002;-94.584;2022-09-02T00:49:05;25.40;36.20
62809;DHT22;48848;39.002;-94.584;2022-09-02T00:51:35;25.40;36.60
62809;DHT22;48848;39.002;-94.584;2022-09-02T00:54:02;25.50;36.60
62809;DHT22;48848;39.002;-94.584;2022-09-02T00:56:29;25.40;38.60
62809;DHT22;48848;39.002;-94.584;2022-09-02T00:58:55;25.50;38.00
62809;DHT22;48848;39.002;-94.584;2022-09-02T01:01:22;25.50;38.10
62809;DHT22;48848;39.002;-94.584;2022-09-02T01:03:48;25.30;38.10
62809;DHT22;48848;39.002;-94.584;2022-09-02T01:06:15;25.20;38.50
62809;DHT22;48848;39.002;-94.584;2022-09-02T01:08:44;25.20;39.50
62809;DHT22;48848;39.002;-94.584;2022-09-02T01:11:11;25.20;38.30
62809;DHT22;48848;39.002;-94.584;2022-09-02T01:13:40;25.20;37.80
62809;DHT22;48848;39.002;-94.584;2022-09-02T01:18:32;25.30;37.20
62809;DHT22;48848;39.002;-94.584;2022-09-02T01:21:01;25.30;37.20
62809;DHT22;48848;39.002;-94.584;2022-09-02T01:23:27;25.30;37.30
62809;DHT22;48848;39.002;-94.584;2022-09-02T01:25:54;25.20;37.30
62809;DHT22;48848;39.002;-94.584;2022-09-02T01:28:20;25.30;37.20
62809;DHT22;48848;39.002;-94.584;2022-09-02T01:30:50;25.20;37.30
62809;DHT22;48848;39.002;-94.584;2022-09-02T01:33:17;25.20;37.60
62809;DHT22;48848;39.002;-94.584;2022-09-02T01:35:43;25.10;37.90
62809;DHT22;48848;39.002;-94.584;2022-09-02T01:38:09;25.00;38.00
62809;DHT22;48848;39.002;-94.584;2022-09-02T01:40:35;25.00;38.20
62809;DHT22;48848;39.002;-94.584;2022-09-02T01:43:03;25.00;38.20
62809;DHT22;48848;39.002;-94.584;2022-09-02T01:45:32;25.00;38.30
62809;DHT22;48848;39.002;-94.584;2022-09-02T01:47:58;25.00;38.40
62809;DHT22;48848;39.002;-94.584;2022-09-02T01:50:24;25.00;38.40
62809;DHT22;48848;39.002;-94.584;2022-09-02T01:52:49;25.00;38.40
62809;DHT22;48848;39.002;-94.584;2022-09-02T01:55:15;25.00;38.30
62809;DHT22;48848;39.002;-94.584;2022-09-02T01:57:41;24.90;38.20
62809;DHT22;48848;39.002;-94.584;2022-09-02T02:00:08;25.00;38.10
62809;DHT22;48848;39.002;-94.584;2022-09-02T02:02:34;24.90;38.10
62809;DHT22;48848;39.002;-94.584;2022-09-02T02:05:00;24.90;38.30
62809;DHT22;48848;39.002;-94.584;2022-09-02T02:07:27;24.90;38.40
62809;DHT22;48848;39.002;-94.584;2022-09-02T02:09:53;24.90;38.00
62809;DHT22;48848;39.002;-94.584;2022-09-02T02:12:19;24.90;38.00
62809;DHT22;48848;39.002;-94.584;2022-09-02T02:14:45;24.90;37.80
62809;DHT22;48848;39.002;-94.584;2022-09-02T02:17:11;24.90;38.00
62809;DHT22;48848;39.002;-94.584;2022-09-02T02:19:37;24.90;37.90
62809;DHT22;48848;39.002;-94.584;2022-09-02T02:22:03;24.80;37.60
62809;DHT22;48848;39.002;-94.584;2022-09-02T02:24:29;24.80;37.20
62809;DHT22;48848;39.002;-94.584;2022-09-02T02:26:54;24.80;37.10
62809;DHT22;48848;39.002;-94.584;2022-09-02T02:29:20;24.80;37.20
62809;DHT22;48848;39.002;-94.584;2022-09-02T02:31:47;24.70;37.00
62809;DHT22;48848;39.002;-94.584;2022-09-02T02:34:13;24.70;36.90
62809;DHT22;48848;39.002;-94.584;2022-09-02T02:36:41;24.70;36.90
62809;DHT22;48848;39.002;-94.584;2022-09-02T02:39:07;24.70;37.00
62809;DHT22;48848;39.002;-94.584;2022-09-02T02:41:34;24.70;37.10
62809;DHT22;48848;39.002;-94.584;2022-09-02T02:44:00;24.70;37.10
62809;DHT22;48848;39.002;-94.584;2022-09-02T02:46:26;24.60;36.90
62809;DHT22;48848;39.002;-94.584;2022-09-02T02:48:52;24.60;36.90
62809;DHT22;48848;39.002;-94.584;2022-09-02T02:51:18;24.60;36.70
62809;DHT22;48848;39.002;-94.584;2022-09-02T02:53:44;24.50;36.60
62809;DHT22;48848;39.002;-94.584;2022-09-02T02:56:10;24.50;36.70
62809;DHT22;48848;39.002;-94.584;2022-09-02T02:58:36;24.50;36.70
62809;DHT22;48848;39.002;-94.584;2022-09-02T03:01:02;24.50;36.70
62809;DHT22;48848;39.002;-94.584;2022-09-02T03:03:28;24.50;36.60
62809;DHT22;48848;39.002;-94.584;2022-09-02T03:05:54;24.40;36.60
62809;DHT22;48848;39.002;-94.584;2022-09-02T03:08:20;24.40;36.70
62809;DHT22;48848;39.002;-94.584;2022-09-02T03:10:49;24.40;36.80
62809;DHT22;48848;39.002;-94.584;2022-09-02T03:13:19;24.30;36.70
62809;DHT22;48848;39.002;-94.584;2022-09-02T03:15:46;24.30;36.70
62809;DHT22;48848;39.002;-94.584;2022-09-02T03:18:12;24.30;36.70
62809;DHT22;48848;39.002;-94.584;2022-09-02T03:20:38;24.20;36.70
62809;DHT22;48848;39.002;-94.584;2022-09-02T03:23:05;24.10;36.80
62809;DHT22;48848;39.002;-94.584;2022-09-02T03:25:31;24.20;36.80
62809;DHT22;48848;39.002;-94.584;2022-09-02T03:27:58;24.10;36.70
62809;DHT22;48848;39.002;-94.584;2022-09-02T03:30:25;24.10;36.80
62809;DHT22;48848;39.002;-94.584;2022-09-02T03:32:53;24.10;36.80
62809;DHT22;48848;39.002;-94.584;2022-09-02T03:35:19;24.10;36.70
62809;DHT22;48848;39.002;-94.584;2022-09-02T03:37:46;24.00;36.80
62809;DHT22;48848;39.002;-94.584;2022-09-02T03:40:13;24.00;36.70
62809;DHT22;48848;39.002;-94.584;2022-09-02T03:42:40;24.00;36.80
62809;DHT22;48848;39.002;-94.584;2022-09-02T03:45:06;24.00;36.70
62809;DHT22;48848;39.002;-94.584;2022-09-02T03:47:33;24.00;36.80
62809;DHT22;48848;39.002;-94.584;2022-09-02T03:49:59;24.00;36.60
62809;DHT22;48848;39.002;-94.584;2022-09-02T03:52:25;23.90;36.70
62809;DHT22;48848;39.002;-94.584;2022-09-02T03:54:51;23.90;36.60
62809;DHT22;48848;39.002;-94.584;2022-09-02T03:57:17;23.90;36.70
62809;DHT22;48848;39.002;-94.584;2022-09-02T03:59:45;23.90;36.70
62809;DHT22;48848;39.002;-94.584;2022-09-02T04:02:11;23.90;36.70
62809;DHT22;48848;39.002;-94.584;2022-09-02T04:04:37;23.90;36.80
62809;DHT22;48848;39.002;-94.584;2022-09-02T04:07:03;23.80;36.60
62809;DHT22;48848;39.002;-94.584;2022-09-02T04:09:28;23.80;36.60
62809;DHT22;48848;39.002;-94.584;2022-09-02T04:11:54;23.70;36.70
62809;DHT22;48848;39.002;-94.584;2022-09-02T04:14:20;23.70;36.60
62809;DHT22;48848;39.002;-94.584;2022-09-02T04:16:46;23.70;36.60
62809;DHT22;48848;39.002;-94.584;2022-09-02T04:19:12;23.70;36.70
62809;DHT22;48848;39.002;-94.584;2022-09-02T04:21:39;23.70;36.70
62809;DHT22;48848;39.002;-94.584;2022-09-02T04:24:06;23.70;36.70
62809;DHT22;48848;39.002;-94.584;2022-09-02T04:26:33;23.70;36.70
62809;DHT22;48848;39.002;-94.584;2022-09-02T04:28:59;23.70;36.70
62809;DHT22;48848;39.002;-94.584;2022-09-02T04:31:26;23.60;36.60
62809;DHT22;48848;39.002;-94.584;2022-09-02T04:33:54;23.60;36.70
62809;DHT22;48848;39.002;-94.584;2022-09-02T04:36:21;23.60;36.80
62809;DHT22;48848;39.002;-94.584;2022-09-02T04:38:47;23.60;36.80
62809;DHT22;48848;39.002;-94.584;2022-09-02T04:41:15;23.50;37.80
62809;DHT22;48848;39.002;-94.584;2022-09-02T04:43:41;23.50;36.80
62809;DHT22;48848;39.002;-94.584;2022-09-02T04:46:08;23.50;36.80
62809;DHT22;48848;39.002;-94.584;2022-09-02T04:48:35;23.50;36.90
62809;DHT22;48848;39.002;-94.584;2022-09-02T04:51:05;23.40;36.80
62809;DHT22;48848;39.002;-94.584;2022-09-02T04:53:31;23.40;36.80
62809;DHT22;48848;39.002;-94.584;2022-09-02T04:55:57;23.40;36.80
62809;DHT22;48848;39.002;-94.584;2022-09-02T04:58:23;23.40;36.80
62809;DHT22;48848;39.002;-94.584;2022-09-02T05:00:49;23.30;36.70
62809;DHT22;48848;39.002;-94.584;2022-09-02T05:03:15;23.30;36.70
62809;DHT22;48848;39.002;-94.584;2022-09-02T05:05:41;23.10;36.90
62809;DHT22;48848;39.002;-94.584;2022-09-02T05:08:07;22.40;37.70
62809;DHT22;48848;39.002;-94.584;2022-09-02T05:10:33;22.00;38.30
62809;DHT22;48848;39.002;-94.584;2022-09-02T05:12:59;21.80;38.70
62809;DHT22;48848;39.002;-94.584;2022-09-02T05:15:25;21.70;39.00
62809;DHT22;48848;39.002;-94.584;2022-09-02T05:17:51;21.60;39.20
62809;DHT22;48848;39.002;-94.584;2022-09-02T05:20:17;21.50;39.40
62809;DHT22;48848;39.002;-94.584;2022-09-02T05:22:43;21.40;39.50
62809;DHT22;48848;39.002;-94.584;2022-09-02T05:25:10;21.30;39.60
62809;DHT22;48848;39.002;-94.584;2022-09-02T05:27:36;21.30;39.70
62809;DHT22;48848;39.002;-94.584;2022-09-02T05:30:03;21.20;39.80
62809;DHT22;48848;39.002;-94.584;2022-09-02T05:32:29;21.10;39.80
62809;DHT22;48848;39.002;-94.584;2022-09-02T05:34:55;21.20;39.90
62809;DHT22;48848;39.002;-94.584;2022-09-02T05:37:21;21.10;39.90
62809;DHT22;48848;39.002;-94.584;2022-09-02T05:39:49;21.10;40.00
62809;DHT22;48848;39.002;-94.584;2022-09-02T05:42:15;21.00;39.90
62809;DHT22;48848;39.002;-94.584;2022-09-02T05:44:41;21.00;40.00
62809;DHT22;48848;39.002;-94.584;2022-09-02T05:47:09;21.00;40.10
62809;DHT22;48848;39.002;-94.584;2022-09-02T05:49:35;20.90;40.10
62809;DHT22;48848;39.002;-94.584;2022-09-02T05:52:01;20.90;40.20
62809;DHT22;48848;39.002;-94.584;2022-09-02T05:54:32;20.90;40.20
62809;DHT22;48848;39.002;-94.584;2022-09-02T05:57:00;20.80;40.20
62809;DHT22;48848;39.002;-94.584;2022-09-02T05:59:27;20.80;40.20
62809;DHT22;48848;39.002;-94.584;2022-09-02T06:01:53;20.80;41.30
62809;DHT22;48848;39.002;-94.584;2022-09-02T06:04:19;20.70;40.40
62809;DHT22;48848;39.002;-94.584;2022-09-02T06:06:47;20.70;40.70
62809;DHT22;48848;39.002;-94.584;2022-09-02T06:09:14;21.00;41.50
62809;DHT22;48848;39.002;-94.584;2022-09-02T06:11:41;21.20;40.90
62809;DHT22;48848;39.002;-94.584;2022-09-02T06:14:09;21.50;40.50
62809;DHT22;48848;39.002;-94.584;2022-09-02T06:16:37;21.60;40.40
62809;DHT22;48848;39.002;-94.584;2022-09-02T06:19:03;21.70;40.20
62809;DHT22;48848;39.002;-94.584;2022-09-02T06:21:29;21.80;40.20
62809;DHT22;48848;39.002;-94.584;2022-09-02T06:23:55;21.90;40.20
62809;DHT22;48848;39.002;-94.584;2022-09-02T06:26:21;22.00;40.20
62809;DHT22;48848;39.002;-94.584;2022-09-02T06:28:47;22.00;40.40
62809;DHT22;48848;39.002;-94.584;2022-09-02T06:31:14;22.10;40.50
62809;DHT22;48848;39.002;-94.584;2022-09-02T06:33:41;22.20;40.80
62809;DHT22;48848;39.002;-94.584;2022-09-02T06:36:08;22.30;40.90
62809;DHT22;48848;39.002;-94.584;2022-09-02T06:38:37;22.40;41.10
62809;DHT22;48848;39.002;-94.584;2022-09-02T06:41:03;22.40;41.20
62809;DHT22;48848;39.002;-94.584;2022-09-02T06:43:29;22.50;42.00
62809;DHT22;48848;39.002;-94.584;2022-09-02T06:45:56;22.50;41.70
62809;DHT22;48848;39.002;-94.584;2022-09-02T06:48:22;22.50;41.40
62809;DHT22;48848;39.002;-94.584;2022-09-02T06:50:48;22.60;41.80
62809;DHT22;48848;39.002;-94.584;2022-09-02T06:53:13;22.60;41.90
62809;DHT22;48848;39.002;-94.584;2022-09-02T06:55:42;22.50;42.30
62809;DHT22;48848;39.002;-94.584;2022-09-02T06:58:08;22.20;41.10
62809;DHT22;48848;39.002;-94.584;2022-09-02T07:00:34;22.10;41.20
62809;DHT22;48848;39.002;-94.584;2022-09-02T07:03:02;22.00;41.20
62809;DHT22;48848;39.002;-94.584;2022-09-02T07:05:46;21.80;41.10
62809;DHT22;48848;39.002;-94.584;2022-09-02T07:08:12;21.70;41.10
62809;DHT22;48848;39.002;-94.584;2022-09-02T07:10:38;21.60;40.90
62809;DHT22;48848;39.002;-94.584;2022-09-02T07:13:05;21.60;40.90
62809;DHT22;48848;39.002;-94.584;2022-09-02T07:15:31;21.70;44.00
62809;DHT22;48848;39.002;-94.584;2022-09-02T07:17:57;21.70;45.90
62809;DHT22;48848;39.002;-94.584;2022-09-02T07:20:23;21.90;45.40
62809;DHT22;48848;39.002;-94.584;2022-09-02T07:22:49;22.00;44.70
62809;DHT22;48848;39.002;-94.584;2022-09-02T07:25:16;22.20;44.20
62809;DHT22;48848;39.002;-94.584;2022-09-02T07:27:42;22.30;44.00
62809;DHT22;48848;39.002;-94.584;2022-09-02T07:30:08;22.40;43.70
62809;DHT22;48848;39.002;-94.584;2022-09-02T07:32:35;22.40;43.50
62809;DHT22;48848;39.002;-94.584;2022-09-02T07:35:01;22.50;43.40
62809;DHT22;48848;39.002;-94.584;2022-09-02T07:37:27;22.60;43.40
62809;DHT22;48848;39.002;-94.584;2022-09-02T07:39:53;22.60;43.30
62809;DHT22;48848;39.002;-94.584;2022-09-02T07:42:19;22.70;43.60
62809;DHT22;48848;39.002;-94.584;2022-09-02T07:44:45;22.70;43.60
62809;DHT22;48848;39.002;-94.584;2022-09-02T07:47:11;22.80;43.40
62809;DHT22;48848;39.002;-94.584;2022-09-02T07:49:37;22.80;43.50
62809;DHT22;48848;39.002;-94.584;2022-09-02T07:52:03;22.80;43.90
62809;DHT22;48848;39.002;-94.584;2022-09-02T07:54:29;22.90;43.60
62809;DHT22;48848;39.002;-94.584;2022-09-02T07:56:57;22.90;43.90
62809;DHT22;48848;39.002;-94.584;2022-09-02T07:59:24;22.90;43.30
62809;DHT22;48848;39.002;-94.584;2022-09-02T08:01:50;22.70;42.60
62809;DHT22;48848;39.002;-94.584;2022-09-02T08:04:17;22.50;42.50
62809;DHT22;48848;39.002;-94.584;2022-09-02T08:06:43;22.40;42.10
62809;DHT22;48848;39.002;-94.584;2022-09-02T08:09:09;22.20;42.20
62809;DHT22;48848;39.002;-94.584;2022-09-02T08:11:36;22.10;43.10
62809;DHT22;48848;39.002;-94.584;2022-09-02T08:14:07;22.10;42.90
62809;DHT22;48848;39.002;-94.584;2022-09-02T08:16:33;22.10;45.70
62809;DHT22;48848;39.002;-94.584;2022-09-02T08:19:00;22.20;46.90
62809;DHT22;48848;39.002;-94.584;2022-09-02T08:21:26;22.40;46.30
62809;DHT22;48848;39.002;-94.584;2022-09-02T08:23:52;22.50;45.40
62809;DHT22;48848;39.002;-94.584;2022-09-02T08:26:17;22.60;45.20
62809;DHT22;48848;39.002;-94.584;2022-09-02T08:28:44;22.70;45.30
62809;DHT22;48848;39.002;-94.584;2022-09-02T08:31:10;22.80;45.20
62809;DHT22;48848;39.002;-94.584;2022-09-02T08:33:36;22.80;44.80
62809;DHT22;48848;39.002;-94.584;2022-09-02T08:36:03;22.90;45.00
62809;DHT22;48848;39.002;-94.584;2022-09-02T08:38:29;23.00;45.10
62809;DHT22;48848;39.002;-94.584;2022-09-02T08:40:55;23.10;45.30
62809;DHT22;48848;39.002;-94.584;2022-09-02T08:45:56;23.10;45.60
62809;DHT22;48848;39.002;-94.584;2022-09-02T08:50:52;23.10;45.50
62809;DHT22;48848;39.002;-94.584;2022-09-02T08:53:33;23.00;43.80
62809;DHT22;48848;39.002;-94.584;2022-09-02T08:55:59;22.80;43.30
62809;DHT22;48848;39.002;-94.584;2022-09-02T08:58:27;22.60;43.00
62809;DHT22;48848;39.002;-94.584;2022-09-02T09:08:54;22.10;42.50
62809;DHT22;48848;39.002;-94.584;2022-09-02T09:11:23;22.10;42.00
62809;DHT22;48848;39.002;-94.584;2022-09-02T09:19:12;22.20;46.80
62809;DHT22;48848;39.002;-94.584;2022-09-02T09:21:38;22.30;45.80
62809;DHT22;48848;39.002;-94.584;2022-09-02T09:24:17;22.50;45.30
62809;DHT22;48848;39.002;-94.584;2022-09-02T09:26:44;22.60;45.40
62809;DHT22;48848;39.002;-94.584;2022-09-02T09:29:11;22.70;44.90
62809;DHT22;48848;39.002;-94.584;2022-09-02T09:31:37;22.80;44.60
62809;DHT22;48848;39.002;-94.584;2022-09-02T09:34:07;22.90;46.60
62809;DHT22;48848;39.002;-94.584;2022-09-02T09:36:43;22.90;45.90
62809;DHT22;48848;39.002;-94.584;2022-09-02T09:41:45;23.00;44.70
62809;DHT22;48848;39.002;-94.584;2022-09-02T09:44:33;23.00;45.20
62809;DHT22;48848;39.002;-94.584;2022-09-02T09:47:22;23.00;45.40
62809;DHT22;48848;39.002;-94.584;2022-09-02T09:50:02;23.10;44.90
62809;DHT22;48848;39.002;-94.584;2022-09-02T09:52:33;23.10;44.80
62809;DHT22;48848;39.002;-94.584;2022-09-02T09:55:07;23.10;44.90
62809;DHT22;48848;39.002;-94.584;2022-09-02T09:57:34;23.10;45.70
62809;DHT22;48848;39.002;-94.584;2022-09-02T10:00:00;23.20;45.20
62809;DHT22;48848;39.002;-94.584;2022-09-02T10:02:28;23.20;44.80
62809;DHT22;48848;39.002;-94.584;2022-09-02T10:04:54;23.20;45.40
62809;DHT22;48848;39.002;-94.584;2022-09-02T10:07:38;23.30;44.90
62809;DHT22;48848;39.002;-94.584;2022-09-02T10:10:11;23.30;45.30
62809;DHT22;48848;39.002;-94.584;2022-09-02T10:12:39;23.30;45.30
62809;DHT22;48848;39.002;-94.584;2022-09-02T10:15:05;23.30;45.70
62809;DHT22;48848;39.002;-94.584;2022-09-02T10:20:32;23.30;45.70
62809;DHT22;48848;39.002;-94.584;2022-09-02T10:23:04;23.30;45.70
62809;DHT22;48848;39.002;-94.584;2022-09-02T10:25:38;23.30;45.70
62809;DHT22;48848;39.002;-94.584;2022-09-02T10:33:38;23.40;45.20
62809;DHT22;48848;39.002;-94.584;2022-09-02T10:36:27;23.50;46.00
62809;DHT22;48848;39.002;-94.584;2022-09-02T10:39:02;23.50;45.70
62809;DHT22;48848;39.002;-94.584;2022-09-02T10:41:36;23.50;45.40
62809;DHT22;48848;39.002;-94.584;2022-09-02T10:46:35;23.10;43.10
62809;DHT22;48848;39.002;-94.584;2022-09-02T10:57:18;22.50;41.90
62809;DHT22;48848;39.002;-94.584;2022-09-02T11:04:59;22.20;42.00
62809;DHT22;48848;39.002;-94.584;2022-09-02T11:07:28;22.10;41.80
62809;DHT22;48848;39.002;-94.584;2022-09-02T11:10:00;22.30;46.20
62809;DHT22;48848;39.002;-94.584;2022-09-02T11:12:31;22.50;43.20
62809;DHT22;48848;39.002;-94.584;2022-09-02T11:20:28;22.80;42.60
62809;DHT22;48848;39.002;-94.584;2022-09-02T11:30:54;23.00;43.40
62809;DHT22;48848;39.002;-94.584;2022-09-02T11:33:33;23.00;43.30
62809;DHT22;48848;39.002;-94.584;2022-09-02T11:36:01;23.10;43.30
62809;DHT22;48848;39.002;-94.584;2022-09-02T11:43:52;23.10;43.80
62809;DHT22;48848;39.002;-94.584;2022-09-02T11:51:50;23.20;43.90
62809;DHT22;48848;39.002;-94.584;2022-09-02T11:54:18;23.20;44.10
62809;DHT22;48848;39.002;-94.584;2022-09-02T11:56:47;23.20;44.10
62809;DHT22;48848;39.002;-94.584;2022-09-02T11:59:21;23.20;44.10
62809;DHT22;48848;39.002;-94.584;2022-09-02T12:01:51;23.20;43.90
62809;DHT22;48848;39.002;-94.584;2022-09-02T12:04:21;23.30;44.00
62809;DHT22;48848;39.002;-94.584;2022-09-02T12:17:31;23.30;44.30
62809;DHT22;48848;39.002;-94.584;2022-09-02T12:20:01;23.40;44.40
62809;DHT22;48848;39.002;-94.584;2022-09-02T12:22:31;23.40;44.50
62809;DHT22;48848;39.002;-94.584;2022-09-02T12:24:58;23.40;44.50
62809;DHT22;48848;39.002;-94.584;2022-09-02T12:27:33;23.40;44.50
62809;DHT22;48848;39.002;-94.584;2022-09-02T12:30:04;23.40;44.40
62809;DHT22;48848;39.002;-94.584;2022-09-02T12:35:11;23.50;44.60
62809;DHT22;48848;39.002;-94.584;2022-09-02T12:37:54;23.50;44.70
62809;DHT22;48848;39.002;-94.584;2022-09-02T12:40:25;23.40;43.00
62809;DHT22;48848;39.002;-94.584;2022-09-02T12:42:52;23.20;43.10
62809;DHT22;48848;39.002;-94.584;2022-09-02T12:45:23;23.00;43.00
62809;DHT22;48848;39.002;-94.584;2022-09-02T12:53:22;22.50;42.10
62809;DHT22;48848;39.002;-94.584;2022-09-02T12:56:00;22.40;42.10
62809;DHT22;48848;39.002;-94.584;2022-09-02T12:58:32;22.30;42.60
62809;DHT22;48848;39.002;-94.584;2022-09-02T13:03:38;22.50;47.10
62809;DHT22;48848;39.002;-94.584;2022-09-02T13:08:39;22.70;45.80
62809;DHT22;48848;39.002;-94.584;2022-09-02T13:16:15;23.00;45.10
62809;DHT22;48848;39.002;-94.584;2022-09-02T13:31:44;23.20;46.50
62809;DHT22;48848;39.002;-94.584;2022-09-02T13:34:22;23.20;45.70
62809;DHT22;48848;39.002;-94.584;2022-09-02T13:36:48;23.20;45.60
62809;DHT22;48848;39.002;-94.584;2022-09-02T13:41:43;23.30;45.90
62809;DHT22;48848;39.002;-94.584;2022-09-02T13:44:11;23.40;45.80
62809;DHT22;48848;39.002;-94.584;2022-09-02T13:46:44;23.40;46.10
62809;DHT22;48848;39.002;-94.584;2022-09-02T13:49:21;23.40;46.10
62809;DHT22;48848;39.002;-94.584;2022-09-02T13:51:47;23.50;46.20
62809;DHT22;48848;39.002;-94.584;2022-09-02T13:54:20;23.50;46.30
62809;DHT22;48848;39.002;-94.584;2022-09-02T13:56:48;23.50;46.10
62809;DHT22;48848;39.002;-94.584;2022-09-02T13:59:14;23.50;46.30
62809;DHT22;48848;39.002;-94.584;2022-09-02T14:01:55;23.40;46.30
62809;DHT22;48848;39.002;-94.584;2022-09-02T14:04:21;23.50;46.40
62809;DHT22;48848;39.002;-94.584;2022-09-02T14:06:47;23.50;46.10
62809;DHT22;48848;39.002;-94.584;2022-09-02T14:09:46;23.50;46.10
62809;DHT22;48848;39.002;-94.584;2022-09-02T14:12:05;23.50;46.10
62809;DHT22;48848;39.002;-94.584;2022-09-02T14:14:31;23.50;46.20
62809;DHT22;48848;39.002;-94.584;2022-09-02T14:17:16;23.60;46.30
62809;DHT22;48848;39.002;-94.584;2022-09-02T14:19:42;23.60;46.10
62809;DHT22;48848;39.002;-94.584;2022-09-02T14:22:18;23.70;46.30
62809;DHT22;48848;39.002;-94.584;2022-09-02T14:24:45;23.70;46.30
62809;DHT22;48848;39.002;-94.584;2022-09-02T14:27:18;23.70;46.20
62809;DHT22;48848;39.002;-94.584;2022-09-02T14:29:45;23.70;46.40
62809;DHT22;48848;39.002;-94.584;2022-09-02T14:39:52;23.80;46.30
62809;DHT22;48848;39.002;-94.584;2022-09-02T14:42:18;23.80;46.10
62809;DHT22;48848;39.002;-94.584;2022-09-02T14:44:47;23.80;46.40
62809;DHT22;48848;39.002;-94.584;2022-09-02T14:47:13;23.80;46.30
62809;DHT22;48848;39.002;-94.584;2022-09-02T14:49:49;23.80;46.50
62809;DHT22;48848;39.002;-94.584;2022-09-02T14:52:17;23.90;48.00
62809;DHT22;48848;39.002;-94.584;2022-09-02T14:54:45;23.90;46.60
62809;DHT22;48848;39.002;-94.584;2022-09-02T14:59:45;23.90;46.80
62809;DHT22;48848;39.002;-94.584;2022-09-02T15:02:28;23.90;46.60
62809;DHT22;48848;39.002;-94.584;2022-09-02T15:04:57;23.90;46.40
62809;DHT22;48848;39.002;-94.584;2022-09-02T15:07:23;23.90;46.20
62809;DHT22;48848;39.002;-94.584;2022-09-02T15:09:50;23.90;46.90
62809;DHT22;48848;39.002;-94.584;2022-09-02T15:15:02;23.90;46.40
62809;DHT22;48848;39.002;-94.584;2022-09-02T15:17:29;24.00;46.10
62809;DHT22;48848;39.002;-94.584;2022-09-02T15:19:55;24.10;46.40
62809;DHT22;48848;39.002;-94.584;2022-09-02T15:22:21;24.10;46.10
62809;DHT22;48848;39.002;-94.584;2022-09-02T15:24:47;24.10;46.30
62809;DHT22;48848;39.002;-94.584;2022-09-02T15:27:13;24.10;46.90
62809;DHT22;48848;39.002;-94.584;2022-09-02T15:29:39;24.10;47.00
62809;DHT22;48848;39.002;-94.584;2022-09-02T15:32:06;24.10;46.70
62809;DHT22;48848;39.002;-94.584;2022-09-02T15:34:32;24.20;48.30
62809;DHT22;48848;39.002;-94.584;2022-09-02T15:37:01;24.20;47.40
62809;DHT22;48848;39.002;-94.584;2022-09-02T15:39:27;24.30;48.50
62809;DHT22;48848;39.002;-94.584;2022-09-02T15:41:53;24.30;48.10
62809;DHT22;48848;39.002;-94.584;2022-09-02T15:44:20;24.30;48.50
62809;DHT22;48848;39.002;-94.584;2022-09-02T15:46:46;24.40;48.30
62809;DHT22;48848;39.002;-94.584;2022-09-02T15:49:12;24.40;48.80
62809;DHT22;48848;39.002;-94.584;2022-09-02T15:51:42;24.40;48.30
62809;DHT22;48848;39.002;-94.584;2022-09-02T15:54:10;24.40;48.40
62809;DHT22;48848;39.002;-94.584;2022-09-02T15:56:36;24.40;48.40
62809;DHT22;48848;39.002;-94.584;2022-09-02T15:59:04;24.40;48.30
62809;DHT22;48848;39.002;-94.584;2022-09-02T16:01:34;24.40;48.00
62809;DHT22;48848;39.002;-94.584;2022-09-02T16:04:01;24.40;48.80
62809;DHT22;48848;39.002;-94.584;2022-09-02T16:06:28;24.40;48.90
62809;DHT22;48848;39.002;-94.584;2022-09-02T16:08:54;24.40;49.50
62809;DHT22;48848;39.002;-94.584;2022-09-02T16:11:20;24.40;48.50
62809;DHT22;48848;39.002;-94.584;2022-09-02T16:13:47;24.40;48.70
62809;DHT22;48848;39.002;-94.584;2022-09-02T16:16:13;24.50;48.70
62809;DHT22;48848;39.002;-94.584;2022-09-02T16:18:39;24.50;48.50
62809;DHT22;48848;39.002;-94.584;2022-09-02T16:21:06;24.50;48.60
62809;DHT22;48848;39.002;-94.584;2022-09-02T16:23:32;24.50;49.10
62809;DHT22;48848;39.002;-94.584;2022-09-02T16:26:16;24.50;48.90
62809;DHT22;48848;39.002;-94.584;2022-09-02T16:28:46;24.60;48.90
62809;DHT22;48848;39.002;-94.584;2022-09-02T16:31:13;24.60;49.00
62809;DHT22;48848;39.002;-94.584;2022-09-02T16:33:42;24.60;49.10
62809;DHT22;48848;39.002;-94.584;2022-09-02T16:36:08;24.60;49.10
62809;DHT22;48848;39.002;-94.584;2022-09-02T16:38:35;24.60;49.30
62809;DHT22;48848;39.002;-94.584;2022-09-02T16:41:01;24.60;49.00
62809;DHT22;48848;39.002;-94.584;2022-09-02T16:43:29;24.60;48.70
62809;DHT22;48848;39.002;-94.584;2022-09-02T16:45:56;24.70;49.00
62809;DHT22;48848;39.002;-94.584;2022-09-02T16:48:22;24.60;49.50
62809;DHT22;48848;39.002;-94.584;2022-09-02T16:50:48;24.70;49.00
62809;DHT22;48848;39.002;-94.584;2022-09-02T16:53:15;24.80;49.50
62809;DHT22;48848;39.002;-94.584;2022-09-02T16:55:41;24.90;49.80
62809;DHT22;48848;39.002;-94.584;2022-09-02T16:58:08;24.90;49.80
62809;DHT22;48848;39.002;-94.584;2022-09-02T17:00:35;24.90;49.80
62809;DHT22;48848;39.002;-94.584;2022-09-02T17:03:06;24.90;50.00
62809;DHT22;48848;39.002;-94.584;2022-09-02T17:05:32;25.00;50.30
62809;DHT22;48848;39.002;-94.584;2022-09-02T17:07:58;25.00;49.50
62809;DHT22;48848;39.002;-94.584;2022-09-02T17:10:26;25.00;49.20
62809;DHT22;48848;39.002;-94.584;2022-09-02T17:12:53;25.00;49.30
62809;DHT22;48848;39.002;-94.584;2022-09-02T17:15:19;25.00;58.00